メインページ
METAR-TAF:

METAR-TAF

空港 :

グラン・カナリア島, スペイン

グラン・カナリア空港

緯度: 27-56N, 経度: 015-23W, 海抜: 23m

現時点の気象観測

当レポートは36分前の04:30(UTC)に作成
の風 8kt
気温 21°C
湿度 88%
気圧 1021 hPa
視程10km以上
高度1800ftの雲はほとんどない
高度3000ftの雲は散在している

METAR: GCLP 210430Z 01008KT 9999 FEW018 SCT030 21/19 Q1021 NOSIG

時間: 06:06 (05:06 UTC)

予報

当レポートは3時間6分前の02:00(UTC)に作成
予報は21日の 03時(UTC)から 22日の 03時(UTC)まで有効
北/北東の風 17kt
視程10km以上
高度4000ftの雲は散在している
確率 40% :
21日の 03時(UTC)から 21日の 09時(UTC)まで一時的に
視程: 4900m

TAF: GCLP 210200Z 2103/2203 02017KT 9999 SCT040 TX26/2113Z TN21/2106Z PROB40 TEMPO 2103/2109 4900 RA

4,000以上の空港の気象観測と天気予報(METAR報とTAF報)

利用可能な観測所は地図上に黄色い丸と赤い丸で示す。

丸の上にカーソルを重ねると観測所名を参照できる。

次にクリックすると気象観測と天気予報を参照できる。

マップの切り替え:黒色「×」印の緑ボタンをクリックして拡大、「-」印の緑ボタンをクリックして縮小、緑色の三角印をクリックして隣りの地図に切り替え


METAR-TAF: